createdAt,value
2019-01-29T00:00:57.878Z,15.88
2019-01-29T00:01:57.883Z,15.88
2019-01-29T00:02:57.890Z,16.08
2019-01-29T00:03:57.891Z,16.08
2019-01-29T00:04:57.896Z,15.98
2019-01-29T00:05:57.901Z,15.98
2019-01-29T00:06:57.908Z,16.27
2019-01-29T00:07:57.911Z,16.08
2019-01-29T00:08:57.915Z,15.88
2019-01-29T00:09:57.922Z,16.08
2019-01-29T00:10:57.927Z,15.88
2019-01-29T00:11:57.946Z,15.78
2019-01-29T00:12:57.941Z,15.88
2019-01-29T00:13:57.941Z,16.27
2019-01-29T00:14:57.946Z,16.36
2019-01-29T00:15:57.950Z,16.27
2019-01-29T00:16:57.956Z,16.08
2019-01-29T00:17:57.962Z,16.27
2019-01-29T00:18:57.967Z,15.88
2019-01-29T00:19:57.971Z,15.88
2019-01-29T00:20:57.974Z,15.88
2019-01-29T00:21:57.982Z,15.88
2019-01-29T00:22:57.984Z,16.17
2019-01-29T00:23:57.990Z,15.98
2019-01-29T00:24:57.995Z,15.98
2019-01-29T00:25:58.000Z,15.88
2019-01-29T00:26:58.004Z,15.98
2019-01-29T00:27:58.010Z,16.27
2019-01-29T00:28:58.015Z,16.27
2019-01-29T00:29:58.019Z,16.36
2019-01-29T00:30:58.023Z,16.27
2019-01-29T00:31:58.028Z,16.27
2019-01-29T00:32:58.034Z,15.88
2019-01-29T00:33:58.039Z,16.27
2019-01-29T00:34:58.044Z,16.27
2019-01-29T00:35:58.048Z,16.36
2019-01-29T00:36:58.056Z,16.27
2019-01-29T00:37:58.126Z,16.17
2019-01-29T00:38:58.064Z,16.08
2019-01-29T00:39:58.414Z,16.27
2019-01-29T00:40:58.072Z,15.98
2019-01-29T00:41:58.077Z,16.08
2019-01-29T00:42:58.084Z,16.17
2019-01-29T00:43:58.090Z,16.08
2019-01-29T00:44:58.093Z,16.46
2019-01-29T00:45:58.099Z,16.46
2019-01-29T00:46:58.103Z,16.46
2019-01-29T00:47:58.107Z,16.17
2019-01-29T00:48:58.111Z,16.08
2019-01-29T00:49:58.118Z,16.27
2019-01-29T00:50:58.121Z,16.27
2019-01-29T00:51:58.127Z,16.17
2019-01-29T00:52:58.132Z,15.98
2019-01-29T00:53:58.138Z,16.27
2019-01-29T00:54:58.141Z,16.17
2019-01-29T00:55:58.145Z,16.17
2019-01-29T00:56:58.153Z,15.98
2019-01-29T00:57:58.155Z,16.27
2019-01-29T00:58:58.162Z,16.17
2019-01-29T00:59:58.166Z,16.36
2019-01-29T01:00:58.171Z,16.08
2019-01-29T01:01:58.177Z,16.46
2019-01-29T01:02:58.181Z,16.46
2019-01-29T01:03:58.244Z,16.08
2019-01-29T01:04:58.190Z,15.98
2019-01-29T01:05:58.194Z,16.27
2019-01-29T01:06:58.199Z,16.27
2019-01-29T01:07:58.204Z,16.46
2019-01-29T01:08:58.211Z,16.06
2019-01-29T01:09:58.215Z,16.46
2019-01-29T01:10:58.220Z,16.08
2019-01-29T01:11:58.223Z,16.08
2019-01-29T01:12:58.230Z,15.98
2019-01-29T01:13:58.235Z,16.56
2019-01-29T01:14:58.239Z,16.36
2019-01-29T01:15:58.243Z,16.36
2019-01-29T01:16:58.249Z,16.27
2019-01-29T01:17:58.254Z,16.36
2019-01-29T01:18:58.258Z,16.27
2019-01-29T01:19:58.263Z,16.08
2019-01-29T01:20:58.270Z,16.36
2019-01-29T01:21:58.273Z,15.98
2019-01-29T01:22:58.278Z,16.56
2019-01-29T01:23:58.283Z,16.27
2019-01-29T01:24:58.289Z,16.46
2019-01-29T01:25:58.293Z,16.27
2019-01-29T01:26:58.298Z,16.27
2019-01-29T01:27:58.303Z,16.26
2019-01-29T01:28:58.318Z,16.08
2019-01-29T01:29:58.314Z,16.17
2019-01-29T01:30:58.318Z,16.08
2019-01-29T01:31:58.321Z,16.17
2019-01-29T01:32:58.326Z,16.26
2019-01-29T01:33:58.334Z,16.27
2019-01-29T01:34:58.337Z,16.36
2019-01-29T01:35:58.340Z,16.36
2019-01-29T01:36:58.347Z,16.36
2019-01-29T01:37:58.357Z,16.08
2019-01-29T01:38:58.356Z,16.27
2019-01-29T01:39:58.361Z,15.98
2019-01-29T01:40:58.366Z,16.27
2019-01-29T01:41:58.371Z,16.08
2019-01-29T01:42:58.376Z,16.16
2019-01-29T01:43:58.381Z,16.27
2019-01-29T01:44:58.388Z,16.08
2019-01-29T01:45:58.390Z,16.17
2019-01-29T01:46:58.396Z,16.27
2019-01-29T01:47:58.400Z,16.26
2019-01-29T01:48:58.408Z,16.17
2019-01-29T01:49:58.408Z,15.88
2019-01-29T01:50:58.414Z,16.27
2019-01-29T01:51:58.420Z,16.17
2019-01-29T01:52:59.298Z,16.27
2019-01-29T01:53:58.431Z,15.98
2019-01-29T01:54:58.436Z,16.27
2019-01-29T01:55:58.437Z,16.27
2019-01-29T01:56:58.446Z,16.27
2019-01-29T01:57:58.509Z,16.16
2019-01-29T01:58:58.461Z,15.88
2019-01-29T01:59:58.458Z,16.27
2019-01-29T02:00:58.463Z,15.98
2019-01-29T02:01:58.480Z,16.27
2019-01-29T02:02:58.472Z,15.88
2019-01-29T02:03:58.480Z,15.78
2019-01-29T02:04:58.482Z,16.36
2019-01-29T02:05:58.488Z,16.08
2019-01-29T02:06:58.493Z,16.17
2019-01-29T02:07:58.497Z,16.08
2019-01-29T02:08:58.506Z,15.98
2019-01-29T02:09:58.506Z,16.27
2019-01-29T02:10:58.514Z,16.08
2019-01-29T02:11:58.515Z,15.98
2019-01-29T02:12:58.520Z,15.88
2019-01-29T02:13:58.528Z,16.17
2019-01-29T02:14:58.654Z,16.36
2019-01-29T02:15:58.539Z,16.17
2019-01-29T02:16:58.541Z,15.98
2019-01-29T02:17:58.547Z,16.17
2019-01-29T02:18:58.616Z,15.98
2019-01-29T02:19:58.557Z,15.98
2019-01-29T02:20:58.560Z,15.88
2019-01-29T02:21:58.566Z,15.88
2019-01-29T02:22:58.571Z,16.17
2019-01-29T02:23:58.577Z,16.27
2019-01-29T02:24:58.580Z,15.97
2019-01-29T02:25:58.586Z,16.27
2019-01-29T02:26:58.590Z,16.16
2019-01-29T02:27:58.595Z,16.16
2019-01-29T02:28:58.599Z,16.26
2019-01-29T02:29:58.604Z,15.88
2019-01-29T02:30:58.609Z,15.78
2019-01-29T02:31:58.614Z,16.17
2019-01-29T02:32:58.619Z,15.98
2019-01-29T02:33:58.624Z,15.88
2019-01-29T02:34:58.629Z,16.27
2019-01-29T02:35:58.634Z,15.98
2019-01-29T02:36:58.638Z,16.27
2019-01-29T02:37:58.643Z,16.26
2019-01-29T02:38:58.649Z,16.27
2019-01-29T02:39:58.653Z,16.36
2019-01-29T02:40:58.657Z,16.26
2019-01-29T02:41:58.664Z,15.98
2019-01-29T02:42:58.668Z,16.26
2019-01-29T02:43:58.673Z,15.88
2019-01-29T02:44:58.677Z,16.17
2019-01-29T02:45:58.686Z,16.08
2019-01-29T02:46:58.687Z,16.16
2019-01-29T02:47:58.693Z,16.06
2019-01-29T02:48:58.697Z,16.27
2019-01-29T02:49:58.702Z,16.17
2019-01-29T02:50:58.706Z,16.16
2019-01-29T02:51:58.710Z,16.16
2019-01-29T02:52:58.716Z,15.78
2019-01-29T02:53:58.724Z,16.17
2019-01-29T02:54:58.727Z,15.97
2019-01-29T02:55:58.731Z,15.98
2019-01-29T02:56:58.735Z,16.06
2019-01-29T02:57:58.741Z,15.97
2019-01-29T02:58:58.746Z,15.97
2019-01-29T02:59:58.753Z,15.98
2019-01-29T03:00:58.754Z,15.98
2019-01-29T03:01:58.761Z,15.78
2019-01-29T03:02:58.770Z,15.88
2019-01-29T03:03:58.768Z,15.78
2019-01-29T03:04:58.773Z,15.98
2019-01-29T03:05:58.779Z,15.78
2019-01-29T03:06:58.785Z,15.97
2019-01-29T03:07:58.788Z,15.78
2019-01-29T03:08:58.792Z,16.16
2019-01-29T03:09:58.799Z,16.06
2019-01-29T03:10:58.804Z,16.27
2019-01-29T03:11:58.809Z,16.36
2019-01-29T03:12:58.816Z,16.06
2019-01-29T03:13:58.818Z,16.17
2019-01-29T03:14:58.822Z,16.26
2019-01-29T03:15:58.829Z,16.26
2019-01-29T03:16:58.832Z,16.26
2019-01-29T03:17:58.837Z,15.88
2019-01-29T03:18:58.843Z,16.06
2019-01-29T03:19:58.845Z,16.17
2019-01-29T03:20:58.852Z,16.26
2019-01-29T03:21:58.862Z,16.08
2019-01-29T03:22:58.862Z,16.45
2019-01-29T03:23:58.866Z,16.17
2019-01-29T03:24:59.041Z,16.26
2019-01-29T03:25:58.876Z,16.17
2019-01-29T03:26:58.882Z,15.97
2019-01-29T03:27:58.887Z,16.36
2019-01-29T03:28:58.892Z,16.36
2019-01-29T03:29:58.896Z,15.98
2019-01-29T03:30:58.902Z,16.17
2019-01-29T03:31:58.904Z,16.36
2019-01-29T03:32:58.922Z,15.88
2019-01-29T03:33:58.916Z,16.27
2019-01-29T03:34:58.920Z,15.98
2019-01-29T03:35:58.925Z,15.88
2019-01-29T03:36:58.929Z,15.98
2019-01-29T03:37:58.935Z,15.88
2019-01-29T03:38:58.942Z,15.97
2019-01-29T03:39:58.943Z,15.98
2019-01-29T03:40:58.949Z,15.98
2019-01-29T03:41:58.954Z,16.26
2019-01-29T03:42:58.963Z,16.16
2019-01-29T03:43:58.966Z,15.88
2019-01-29T03:44:58.969Z,15.98
2019-01-29T03:45:58.973Z,15.97
2019-01-29T03:46:58.978Z,15.98
2019-01-29T03:47:58.983Z,15.78
2019-01-29T03:48:58.988Z,15.88
2019-01-29T03:49:58.992Z,15.88
2019-01-29T03:50:58.998Z,15.97
2019-01-29T03:51:59.001Z,15.78
2019-01-29T03:52:59.007Z,15.97
2019-01-29T03:53:59.013Z,16.08
2019-01-29T03:54:59.017Z,15.78
2019-01-29T03:55:59.022Z,15.88
2019-01-29T03:56:59.026Z,15.88
2019-01-29T03:57:59.030Z,15.88
2019-01-29T03:58:59.038Z,15.97
2019-01-29T03:59:59.046Z,15.97
2019-01-29T04:00:59.046Z,15.88
2019-01-29T04:01:59.049Z,15.88
2019-01-29T04:02:59.056Z,16.06
2019-01-29T04:03:59.071Z,15.88
2019-01-29T04:04:59.069Z,15.88
2019-01-29T04:05:59.076Z,15.88
2019-01-29T04:06:59.077Z,15.97
2019-01-29T04:07:59.079Z,15.97
2019-01-29T04:08:59.084Z,15.97
2019-01-29T04:09:59.091Z,15.78
2019-01-29T04:10:59.094Z,15.97
2019-01-29T04:11:59.098Z,15.88
2019-01-29T04:12:59.103Z,15.97
2019-01-29T04:13:59.107Z,15.97
2019-01-29T04:14:59.115Z,15.88
2019-01-29T04:15:59.118Z,16.26
2019-01-29T04:16:59.123Z,15.88
2019-01-29T04:17:59.129Z,16.16
2019-01-29T04:18:59.133Z,15.78
2019-01-29T04:19:59.137Z,15.88
2019-01-29T04:20:59.145Z,15.88
2019-01-29T04:21:59.149Z,15.97
2019-01-29T04:22:59.152Z,15.97
2019-01-29T04:23:59.156Z,15.88
2019-01-29T04:24:59.161Z,16.26
2019-01-29T04:25:59.166Z,15.88
2019-01-29T04:26:59.171Z,15.78
2019-01-29T04:27:59.177Z,15.88
2019-01-29T04:28:59.182Z,15.88
2019-01-29T04:29:59.184Z,15.98
2019-01-29T04:30:59.192Z,16.26
2019-01-29T04:31:59.193Z,16.16
2019-01-29T04:32:59.200Z,16.16
2019-01-29T04:33:59.203Z,16.26
2019-01-29T04:34:59.211Z,16.16
2019-01-29T04:35:59.214Z,16.16
2019-01-29T04:36:59.219Z,15.97
2019-01-29T04:37:59.224Z,16.16
2019-01-29T04:38:59.228Z,15.97
2019-01-29T04:39:59.233Z,15.88
2019-01-29T04:40:59.240Z,16.26
2019-01-29T04:42:32.452Z,16.06
2019-01-29T04:42:59.249Z,15.78
2019-01-29T04:43:59.253Z,15.97
2019-01-29T04:44:59.256Z,15.97
2019-01-29T04:45:59.263Z,15.97
2019-01-29T04:46:59.283Z,15.78
2019-01-29T04:47:59.273Z,15.97
2019-01-29T04:48:59.277Z,15.97
2019-01-29T04:49:59.282Z,16.16
2019-01-29T04:50:59.303Z,15.97
2019-01-29T04:51:59.290Z,16.36
2019-01-29T04:52:59.296Z,15.88
2019-01-29T04:53:59.303Z,16.26
2019-01-29T04:54:59.307Z,16.06
2019-01-29T04:55:59.309Z,16.06
2019-01-29T04:56:59.314Z,16.26
2019-01-29T04:57:59.319Z,15.97
2019-01-29T04:58:59.327Z,16.26
2019-01-29T04:59:59.329Z,15.88
2019-01-29T05:00:59.334Z,15.88
2019-01-29T05:01:59.369Z,15.88
2019-01-29T05:02:59.353Z,16.06
2019-01-29T05:03:59.349Z,16.26
2019-01-29T05:04:59.356Z,16.36
2019-01-29T05:05:59.359Z,16.26
2019-01-29T05:06:59.362Z,16.26
2019-01-29T05:07:59.366Z,16.06
2019-01-29T05:08:59.375Z,16.26
2019-01-29T05:09:59.379Z,15.98
2019-01-29T05:10:59.383Z,15.97
2019-01-29T05:11:59.427Z,15.98
2019-01-29T05:12:59.392Z,16.27
2019-01-29T05:13:59.396Z,15.88
2019-01-29T05:14:59.402Z,16.27
2019-01-29T05:15:59.405Z,15.78
2019-01-29T05:16:59.412Z,15.97
2019-01-29T05:17:59.418Z,15.88
2019-01-29T05:18:59.422Z,15.78
2019-01-29T05:19:59.426Z,15.98
2019-01-29T05:20:59.436Z,15.78
2019-01-29T05:21:59.436Z,16.27
2019-01-29T05:22:59.442Z,16.26
2019-01-29T05:24:06.693Z,16.06
2019-01-29T05:24:59.451Z,16.26
2019-01-29T05:25:59.454Z,16.26
2019-01-29T05:26:59.460Z,16.45
2019-01-29T05:27:59.464Z,16.36
2019-01-29T05:28:59.468Z,16.83
2019-01-29T05:29:59.474Z,16.55
2019-01-29T05:30:59.492Z,17.03
2019-01-29T05:31:59.491Z,16.83
2019-01-29T05:32:59.487Z,16.94
2019-01-29T05:33:59.494Z,17.03
2019-01-29T05:34:59.499Z,16.94
2019-01-29T05:35:59.503Z,17.03
2019-01-29T05:36:59.508Z,17.03
2019-01-29T05:37:59.532Z,16.94
2019-01-29T05:38:59.516Z,17.03
2019-01-29T05:39:59.522Z,15.97
2019-01-29T05:40:59.527Z,15.68
2019-01-29T05:41:59.532Z,15.39
2019-01-29T05:42:59.536Z,16.83
2019-01-29T05:43:59.542Z,16.83
2019-01-29T05:44:59.545Z,16.45
2019-01-29T05:45:59.551Z,16.36
2019-01-29T05:46:59.556Z,16.64
2019-01-29T05:47:59.560Z,16.55
2019-01-29T05:48:59.566Z,16.83
2019-01-29T05:49:59.572Z,16.45
2019-01-29T05:50:59.575Z,16.74
2019-01-29T05:51:59.578Z,16.74
2019-01-29T05:52:59.583Z,16.74
2019-01-29T05:53:59.589Z,16.45
2019-01-29T05:54:59.594Z,16.55
2019-01-29T05:55:59.598Z,16.45
2019-01-29T05:56:59.604Z,16.45
2019-01-29T05:57:59.608Z,16.55
2019-01-29T05:58:59.612Z,16.45
2019-01-29T05:59:59.616Z,16.26
2019-01-29T06:00:59.623Z,16.26
2019-01-29T06:01:59.628Z,16.45
2019-01-29T06:02:59.631Z,16.36
2019-01-29T06:03:59.637Z,16.64
2019-01-29T06:04:59.640Z,16.45
2019-01-29T06:05:59.646Z,16.45
2019-01-29T06:06:59.651Z,16.55
2019-01-29T06:07:59.658Z,16.55
2019-01-29T06:08:59.662Z,16.55
2019-01-29T06:09:59.666Z,16.55
2019-01-29T06:10:59.672Z,16.55
2019-01-29T06:11:59.674Z,16.45
2019-01-29T06:12:59.680Z,16.36
2019-01-29T06:13:59.685Z,16.36
2019-01-29T06:14:59.689Z,16.36
2019-01-29T06:15:59.703Z,16.36
2019-01-29T06:16:59.698Z,16.36
2019-01-29T06:17:59.706Z,16.26
2019-01-29T06:18:59.711Z,16.36
2019-01-29T06:19:59.717Z,16.16
2019-01-29T06:20:59.718Z,16.16
2019-01-29T06:21:59.724Z,16.36
2019-01-29T06:22:59.731Z,16.36
2019-01-29T06:23:59.731Z,16.26
2019-01-29T06:24:59.736Z,16.36
2019-01-29T06:25:59.754Z,16.45
2019-01-29T06:26:59.747Z,16.55
2019-01-29T06:27:59.749Z,16.45
2019-01-29T06:28:59.755Z,16.16
2019-01-29T06:29:59.760Z,16.16
2019-01-29T06:30:59.825Z,16.36
2019-01-29T06:31:59.768Z,16.06
2019-01-29T06:32:59.773Z,16.36
2019-01-29T06:33:59.787Z,16.06
2019-01-29T06:34:59.783Z,16.45
2019-01-29T06:35:59.789Z,16.26
2019-01-29T06:36:59.794Z,16.45
2019-01-29T06:37:59.799Z,16.06
2019-01-29T06:38:59.803Z,16.26
2019-01-29T06:39:59.809Z,16.55
2019-01-29T06:40:59.816Z,16.45
2019-01-29T06:41:59.819Z,16.36
2019-01-29T06:42:59.821Z,16.16
2019-01-29T06:43:59.828Z,16.45
2019-01-29T06:44:59.832Z,16.16
2019-01-29T06:45:59.836Z,16.45
2019-01-29T06:46:59.842Z,16.26
2019-01-29T06:47:59.845Z,16.16
2019-01-29T06:48:59.849Z,16.36
2019-01-29T06:49:59.857Z,16.16
2019-01-29T06:50:59.861Z,16.26
2019-01-29T06:51:59.863Z,16.36
2019-01-29T06:52:59.870Z,16.06
2019-01-29T06:53:59.874Z,16.16
2019-01-29T06:54:59.883Z,15.97
2019-01-29T06:55:59.883Z,15.97
2019-01-29T06:56:59.889Z,16.06
2019-01-29T06:57:59.892Z,16.06
2019-01-29T06:58:59.897Z,16.06
2019-01-29T06:59:59.902Z,16.26
2019-01-29T07:00:59.906Z,16.36
2019-01-29T07:01:59.913Z,16.16
2019-01-29T07:02:59.920Z,16.16
2019-01-29T07:03:59.921Z,16.16
2019-01-29T07:04:59.927Z,15.88
2019-01-29T07:05:59.932Z,15.88
2019-01-29T07:06:59.939Z,15.88
2019-01-29T07:07:59.939Z,16.06
2019-01-29T07:08:59.945Z,15.78
2019-01-29T07:09:59.950Z,16.06
2019-01-29T07:10:59.955Z,15.88
2019-01-29T07:11:59.959Z,16.06
2019-01-29T07:12:59.962Z,15.97
2019-01-29T07:13:59.969Z,15.88
2019-01-29T07:15:00.006Z,15.78
2019-01-29T07:15:59.977Z,15.78
2019-01-29T07:16:59.981Z,16.16
2019-01-29T07:17:59.987Z,16.16
2019-01-29T07:18:59.991Z,16.26
2019-01-29T07:19:59.997Z,16.16
2019-01-29T07:21:00.000Z,16.16
2019-01-29T07:22:00.006Z,16.26
2019-01-29T07:23:00.011Z,16.26
2019-01-29T07:24:00.015Z,16.06
2019-01-29T07:25:00.270Z,15.97
2019-01-29T07:26:00.024Z,16.45
2019-01-29T07:27:00.030Z,16.36
2019-01-29T07:28:00.033Z,16.55
2019-01-29T07:29:00.040Z,16.55
2019-01-29T07:30:00.047Z,16.26
2019-01-29T07:31:00.049Z,16.16
2019-01-29T07:32:00.053Z,16.16
2019-01-29T07:33:00.058Z,16.26
2019-01-29T07:34:00.064Z,16.26
2019-01-29T07:35:00.068Z,16.45
2019-01-29T07:36:00.072Z,16.06
2019-01-29T07:37:00.077Z,16.26
2019-01-29T07:38:00.081Z,16.26
2019-01-29T07:39:00.091Z,16.26
2019-01-29T07:40:00.093Z,16.06
2019-01-29T07:41:00.094Z,16.26
2019-01-29T07:42:00.098Z,16.26
2019-01-29T07:43:00.104Z,16.74
2019-01-29T07:44:00.108Z,16.93
2019-01-29T07:45:00.266Z,16.93
2019-01-29T07:46:00.118Z,16.83
2019-01-29T07:47:00.124Z,16.45
2019-01-29T07:48:00.128Z,16.45
2019-01-29T07:49:00.133Z,16.06
2019-01-29T07:50:00.264Z,16.26
2019-01-29T07:51:00.141Z,16.26
2019-01-29T07:52:00.147Z,16.36
2019-01-29T07:53:00.152Z,16.16
2019-01-29T07:54:00.156Z,16.26
2019-01-29T07:55:00.226Z,16.45
2019-01-29T07:56:00.164Z,16.36
2019-01-29T07:57:00.171Z,16.36
2019-01-29T07:58:00.177Z,16.36
2019-01-29T07:59:00.180Z,16.17
2019-01-29T08:00:00.191Z,16.06
2019-01-29T08:01:00.192Z,16.06
2019-01-29T08:02:00.193Z,16.36
2019-01-29T08:03:00.199Z,15.98
2019-01-29T08:04:00.202Z,15.97
2019-01-29T08:05:00.281Z,16.16
2019-01-29T08:06:00.213Z,16.17
2019-01-29T08:07:00.329Z,16.26
2019-01-29T08:08:00.221Z,16.26
2019-01-29T08:09:00.227Z,16.17
2019-01-29T08:10:00.266Z,16.08
2019-01-29T08:11:00.238Z,16.17
2019-01-29T08:12:00.240Z,15.98
2019-01-29T08:13:00.250Z,15.78
2019-01-29T08:14:00.252Z,16.06
2019-01-29T08:15:00.255Z,15.98
2019-01-29T08:16:00.259Z,15.98
2019-01-29T08:17:00.266Z,15.98
2019-01-29T08:18:00.270Z,15.98
2019-01-29T08:19:00.274Z,15.88
2019-01-29T08:20:00.279Z,15.98
2019-01-29T08:21:00.283Z,15.98
2019-01-29T08:22:00.289Z,16.08
2019-01-29T08:23:00.296Z,15.98
2019-01-29T08:24:00.298Z,15.40
2019-01-29T08:25:01.750Z,15.69
2019-01-29T08:26:00.307Z,15.69
2019-01-29T08:27:00.313Z,15.40
2019-01-29T08:28:00.316Z,15.40
2019-01-29T08:29:00.322Z,15.50
2019-01-29T08:30:00.327Z,15.50
2019-01-29T08:31:00.332Z,15.50
2019-01-29T08:32:00.447Z,15.50
2019-01-29T08:33:00.341Z,15.50
2019-01-29T08:34:00.346Z,15.50
2019-01-29T08:35:00.375Z,15.78
2019-01-29T08:36:00.355Z,15.50
2019-01-29T08:37:00.362Z,14.92
2019-01-29T08:38:00.364Z,15.11
2019-01-29T08:39:00.370Z,15.59
2019-01-29T08:40:00.389Z,15.11
2019-01-29T08:41:00.383Z,15.21
2019-01-29T08:42:00.454Z,15.30
2019-01-29T08:43:00.390Z,15.30
2019-01-29T08:44:00.393Z,15.50
2019-01-29T08:45:00.411Z,15.21
2019-01-29T08:46:00.418Z,15.11
2019-01-29T08:47:00.408Z,15.40
2019-01-29T08:48:00.415Z,15.21
2019-01-29T08:49:00.417Z,15.30
2019-01-29T08:50:00.421Z,15.30
2019-01-29T08:51:00.478Z,15.30
2019-01-29T08:52:00.436Z,15.30
2019-01-29T08:53:00.442Z,15.21
2019-01-29T08:54:00.442Z,15.78
2019-01-29T08:55:00.447Z,15.69
2019-01-29T08:56:00.451Z,15.50
2019-01-29T08:57:00.456Z,15.50
2019-01-29T08:58:00.463Z,15.59
2019-01-29T08:59:00.465Z,15.50
2019-01-29T09:00:00.470Z,15.50
2019-01-29T09:01:00.474Z,15.40
2019-01-29T09:02:00.480Z,15.11
2019-01-29T09:03:00.486Z,15.30
2019-01-29T09:04:00.500Z,14.92
2019-01-29T09:05:00.494Z,15.40
2019-01-29T09:06:00.501Z,15.11
2019-01-29T09:07:00.504Z,15.01
2019-01-29T09:08:00.508Z,15.21
2019-01-29T09:09:00.515Z,15.30
2019-01-29T09:10:00.520Z,15.40
2019-01-29T09:11:00.524Z,15.30
2019-01-29T09:12:00.528Z,15.30
2019-01-29T09:13:00.532Z,15.30
2019-01-29T09:14:00.538Z,15.30
2019-01-29T09:15:00.543Z,15.30
2019-01-29T09:16:00.546Z,15.40
2019-01-29T09:17:00.553Z,15.30
2019-01-29T09:18:00.579Z,15.30
2019-01-29T09:19:00.566Z,15.30
2019-01-29T09:20:00.570Z,15.30
2019-01-29T09:21:00.573Z,15.30
2019-01-29T09:22:00.580Z,15.21
2019-01-29T09:23:00.582Z,15.40
2019-01-29T09:24:00.586Z,15.01
2019-01-29T09:25:00.592Z,15.40
2019-01-29T09:26:00.597Z,15.11
2019-01-29T09:27:00.600Z,15.01
2019-01-29T09:28:00.606Z,15.40
2019-01-29T09:29:00.611Z,15.01
2019-01-29T09:30:00.615Z,15.30
2019-01-29T09:31:00.620Z,15.40
2019-01-29T09:32:00.627Z,15.11
2019-01-29T09:33:00.630Z,15.30
2019-01-29T09:34:00.635Z,15.11
2019-01-29T09:35:00.641Z,15.21
2019-01-29T09:36:00.645Z,15.40
2019-01-29T09:37:00.650Z,15.21
2019-01-29T09:38:00.655Z,15.11
2019-01-29T09:39:00.659Z,15.21
2019-01-29T09:40:00.662Z,15.21
2019-01-29T09:41:00.669Z,15.21
2019-01-29T09:42:00.674Z,15.21
2019-01-29T09:43:00.678Z,15.21
2019-01-29T09:44:00.685Z,15.30
2019-01-29T09:45:00.789Z,15.21
2019-01-29T09:46:00.693Z,15.11
2019-01-29T09:47:00.700Z,15.11
2019-01-29T09:48:00.703Z,15.30
2019-01-29T09:49:00.707Z,15.21
2019-01-29T09:50:00.713Z,15.11
2019-01-29T09:51:00.720Z,15.11
2019-01-29T09:52:00.723Z,15.21
2019-01-29T09:53:00.732Z,15.30
2019-01-29T09:54:00.732Z,15.40
2019-01-29T09:55:00.737Z,15.30
2019-01-29T09:56:00.742Z,15.21
2019-01-29T09:57:00.746Z,15.11
2019-01-29T09:58:00.751Z,15.01
2019-01-29T09:59:00.767Z,15.11
2019-01-29T10:00:00.797Z,14.92
2019-01-29T10:01:00.766Z,15.21
2019-01-29T10:02:00.772Z,14.92
2019-01-29T10:03:00.778Z,14.83
2019-01-29T10:04:00.780Z,14.92
2019-01-29T10:05:00.786Z,14.92
2019-01-29T10:06:00.790Z,14.92
2019-01-29T10:07:00.795Z,15.01
2019-01-29T10:08:00.799Z,14.92
2019-01-29T10:09:00.806Z,14.92
2019-01-29T10:10:00.810Z,15.21
2019-01-29T10:11:00.814Z,14.92
2019-01-29T10:12:00.820Z,15.11
2019-01-29T10:13:00.833Z,14.92
2019-01-29T10:14:00.830Z,15.21
2019-01-29T10:15:00.878Z,14.92
2019-01-29T10:16:00.839Z,14.83
2019-01-29T10:17:00.845Z,15.01
2019-01-29T10:18:00.850Z,15.01
2019-01-29T10:19:00.854Z,15.01
2019-01-29T10:20:02.677Z,15.01
2019-01-29T10:21:00.865Z,14.92
2019-01-29T10:22:00.878Z,14.83
2019-01-29T10:23:00.876Z,14.83
2019-01-29T10:24:00.878Z,15.01
2019-01-29T10:25:00.885Z,14.83
2019-01-29T10:26:00.889Z,14.92
2019-01-29T10:27:00.894Z,14.83
2019-01-29T10:28:00.899Z,15.01
2019-01-29T10:29:00.912Z,15.01
2019-01-29T10:30:00.917Z,14.92
2019-01-29T10:31:01.069Z,14.92
2019-01-29T10:32:00.917Z,14.92
2019-01-29T10:33:00.924Z,14.83
2019-01-29T10:34:00.929Z,14.92
2019-01-29T10:35:00.936Z,14.83
2019-01-29T10:36:00.939Z,14.83
2019-01-29T10:37:00.941Z,14.63
2019-01-29T10:38:00.947Z,15.11
2019-01-29T10:39:00.953Z,14.83
2019-01-29T10:40:01.041Z,14.73
2019-01-29T10:41:00.976Z,15.11
2019-01-29T10:42:00.968Z,14.53
2019-01-29T10:43:00.972Z,14.63
2019-01-29T10:44:00.975Z,14.63
2019-01-29T10:45:00.980Z,15.01
2019-01-29T10:46:00.986Z,14.92
2019-01-29T10:47:00.994Z,14.73
2019-01-29T10:48:01.050Z,15.01
2019-01-29T10:49:01.001Z,15.01
2019-01-29T10:50:01.006Z,14.63
2019-01-29T10:51:01.012Z,15.01
2019-01-29T10:52:01.022Z,14.83
2019-01-29T10:53:01.021Z,14.73
2019-01-29T10:54:01.027Z,14.92
2019-01-29T10:55:01.077Z,15.01
2019-01-29T10:56:01.034Z,14.92
2019-01-29T10:57:01.039Z,14.53
2019-01-29T10:58:01.046Z,14.63
2019-01-29T10:59:01.053Z,15.01
2019-01-29T11:00:01.055Z,14.63
2019-01-29T11:01:01.060Z,14.92
2019-01-29T11:02:01.066Z,14.83
2019-01-29T11:03:01.069Z,15.01
2019-01-29T11:04:01.073Z,15.01
2019-01-29T11:05:01.078Z,15.01
2019-01-29T11:06:01.086Z,15.21
2019-01-29T11:07:01.092Z,15.11
2019-01-29T11:08:01.096Z,15.40
2019-01-29T11:09:01.099Z,15.98
2019-01-29T11:10:01.464Z,16.75
2019-01-29T11:11:01.108Z,17.43
2019-01-29T11:12:01.114Z,16.56
2019-01-29T11:13:01.121Z,17.90
2019-01-29T11:14:01.124Z,18.00
2019-01-29T11:15:01.129Z,18.10
2019-01-29T11:16:01.135Z,17.90
2019-01-29T11:17:01.139Z,17.90
2019-01-29T11:18:01.244Z,18.10
2019-01-29T11:19:03.456Z,18.00
2019-01-29T11:20:01.153Z,18.19
2019-01-29T11:21:01.163Z,17.71
2019-01-29T11:22:01.162Z,18.00
2019-01-29T11:23:01.168Z,18.19
2019-01-29T11:24:01.178Z,18.00
2019-01-29T11:25:01.178Z,18.10
2019-01-29T11:26:01.182Z,17.81
2019-01-29T11:27:01.187Z,17.90
2019-01-29T11:28:01.192Z,17.90
2019-01-29T11:29:01.196Z,17.90
2019-01-29T11:30:01.202Z,18.19
2019-01-29T11:31:01.207Z,17.90
2019-01-29T11:32:01.213Z,18.10
2019-01-29T11:33:01.246Z,18.00
2019-01-29T11:34:01.222Z,18.38
2019-01-29T11:35:01.229Z,18.00
2019-01-29T11:36:01.232Z,18.00
2019-01-29T11:37:01.239Z,18.19
2019-01-29T11:38:01.252Z,18.10
2019-01-29T11:39:01.246Z,18.00
2019-01-29T11:40:01.252Z,18.00
2019-01-29T11:41:01.316Z,18.40
2019-01-29T11:42:01.260Z,18.10
2019-01-29T11:43:01.267Z,18.01
2019-01-29T11:44:01.271Z,17.82
2019-01-29T11:45:01.276Z,17.81
2019-01-29T11:46:01.280Z,17.81
2019-01-29T11:47:01.286Z,17.81
2019-01-29T11:48:01.294Z,17.82
2019-01-29T11:49:02.734Z,17.91
2019-01-29T11:50:01.301Z,18.10
2019-01-29T11:51:01.305Z,18.01
2019-01-29T11:52:01.311Z,17.71
2019-01-29T11:53:01.316Z,17.82
2019-01-29T11:54:01.322Z,17.62
2019-01-29T11:55:01.326Z,17.81
2019-01-29T11:56:04.803Z,17.61
2019-01-29T11:57:01.334Z,17.90
2019-01-29T11:58:01.339Z,17.52
2019-01-29T11:59:01.345Z,17.52
2019-01-29T12:00:01.349Z,17.61
2019-01-29T12:01:01.356Z,17.72
2019-01-29T12:02:01.360Z,17.90
2019-01-29T12:03:01.366Z,18.29
2019-01-29T12:04:01.369Z,17.81
2019-01-29T12:05:01.375Z,17.61
2019-01-29T12:06:01.379Z,17.71
2019-01-29T12:07:01.386Z,17.81
2019-01-29T12:08:01.389Z,17.61
2019-01-29T12:09:01.395Z,17.61
2019-01-29T12:10:01.400Z,17.61
2019-01-29T12:11:01.406Z,17.52
2019-01-29T12:12:01.409Z,17.52
2019-01-29T12:13:02.452Z,17.52
2019-01-29T12:14:01.418Z,17.33
2019-01-29T12:15:01.425Z,17.42
2019-01-29T12:16:01.428Z,17.33
2019-01-29T12:17:01.433Z,17.23
2019-01-29T12:18:01.444Z,17.42
2019-01-29T12:19:01.444Z,17.42
2019-01-29T12:20:01.448Z,17.33
2019-01-29T12:21:01.453Z,17.33
2019-01-29T12:22:01.460Z,17.23
2019-01-29T12:23:01.464Z,17.42
2019-01-29T12:24:01.467Z,17.33
2019-01-29T12:25:01.475Z,17.13
2019-01-29T12:26:01.478Z,17.33
2019-01-29T12:27:01.484Z,17.33
2019-01-29T12:28:01.487Z,17.24
2019-01-29T12:29:01.493Z,17.13
2019-01-29T12:30:01.501Z,17.14
2019-01-29T12:31:01.503Z,17.13
2019-01-29T12:32:01.508Z,16.85
2019-01-29T12:33:01.512Z,16.94
2019-01-29T12:34:01.519Z,17.13
2019-01-29T12:35:01.523Z,16.94
2019-01-29T12:36:01.529Z,16.65
2019-01-29T12:37:01.532Z,16.94
2019-01-29T12:38:01.540Z,16.94
2019-01-29T12:39:01.542Z,17.03
2019-01-29T12:40:01.552Z,16.75
2019-01-29T12:41:01.553Z,16.75
2019-01-29T12:42:01.556Z,16.85
2019-01-29T12:43:01.564Z,16.56
2019-01-29T12:44:01.567Z,16.36
2019-01-29T12:45:01.571Z,16.56
2019-01-29T12:46:01.578Z,16.46
2019-01-29T12:47:01.584Z,16.17
2019-01-29T12:48:01.587Z,16.47
2019-01-29T12:49:01.592Z,16.08
2019-01-29T12:50:01.597Z,16.27
2019-01-29T12:51:01.603Z,16.36
2019-01-29T12:52:01.608Z,16.36
2019-01-29T12:53:03.676Z,16.46